sensor_id;sensor_type;location;lat;lon;timestamp;temperature;humidity
28845;DHT22;15976;47.938;7.758;2022-07-22T00:00:52;23.40;49.30
28845;DHT22;15976;47.938;7.758;2022-07-22T00:03:19;23.40;49.50
28845;DHT22;15976;47.938;7.758;2022-07-22T00:05:47;23.30;49.50
28845;DHT22;15976;47.938;7.758;2022-07-22T00:08:14;23.30;49.50
28845;DHT22;15976;47.938;7.758;2022-07-22T00:10:41;23.30;49.70
28845;DHT22;15976;47.938;7.758;2022-07-22T00:13:08;23.30;49.70
28845;DHT22;15976;47.938;7.758;2022-07-22T00:15:35;23.20;49.90
28845;DHT22;15976;47.938;7.758;2022-07-22T00:18:02;23.10;49.80
28845;DHT22;15976;47.938;7.758;2022-07-22T00:20:29;23.10;49.90
28845;DHT22;15976;47.938;7.758;2022-07-22T00:22:56;23.00;50.00
28845;DHT22;15976;47.938;7.758;2022-07-22T00:25:24;23.00;50.20
28845;DHT22;15976;47.938;7.758;2022-07-22T00:27:51;23.00;50.30
28845;DHT22;15976;47.938;7.758;2022-07-22T00:30:18;22.90;50.30
28845;DHT22;15976;47.938;7.758;2022-07-22T00:32:45;22.90;50.50
28845;DHT22;15976;47.938;7.758;2022-07-22T00:35:13;22.80;50.60
28845;DHT22;15976;47.938;7.758;2022-07-22T00:37:40;22.70;50.60
28845;DHT22;15976;47.938;7.758;2022-07-22T00:40:07;22.70;50.70
28845;DHT22;15976;47.938;7.758;2022-07-22T00:42:34;22.70;50.90
28845;DHT22;15976;47.938;7.758;2022-07-22T00:45:02;22.60;51.00
28845;DHT22;15976;47.938;7.758;2022-07-22T00:47:30;22.60;51.10
28845;DHT22;15976;47.938;7.758;2022-07-22T00:49:57;22.60;51.20
28845;DHT22;15976;47.938;7.758;2022-07-22T00:52:25;22.50;51.30
28845;DHT22;15976;47.938;7.758;2022-07-22T00:54:52;22.50;51.40
28845;DHT22;15976;47.938;7.758;2022-07-22T00:57:19;22.50;51.70
28845;DHT22;15976;47.938;7.758;2022-07-22T00:59:46;22.50;51.80
28845;DHT22;15976;47.938;7.758;2022-07-22T01:02:13;22.50;51.80
28845;DHT22;15976;47.938;7.758;2022-07-22T01:04:41;22.40;51.80
28845;DHT22;15976;47.938;7.758;2022-07-22T01:07:08;22.40;51.90
28845;DHT22;15976;47.938;7.758;2022-07-22T01:09:35;22.40;52.00
28845;DHT22;15976;47.938;7.758;2022-07-22T01:12:03;22.40;52.10
28845;DHT22;15976;47.938;7.758;2022-07-22T01:14:30;22.30;52.10
28845;DHT22;15976;47.938;7.758;2022-07-22T01:16:57;22.30;52.20
28845;DHT22;15976;47.938;7.758;2022-07-22T01:19:25;22.30;52.20
28845;DHT22;15976;47.938;7.758;2022-07-22T01:21:52;22.20;52.20
28845;DHT22;15976;47.938;7.758;2022-07-22T01:24:19;22.20;52.30
28845;DHT22;15976;47.938;7.758;2022-07-22T01:26:46;22.10;52.40
28845;DHT22;15976;47.938;7.758;2022-07-22T01:29:13;22.10;52.60
28845;DHT22;15976;47.938;7.758;2022-07-22T01:31:41;22.10;52.70
28845;DHT22;15976;47.938;7.758;2022-07-22T01:34:08;22.10;52.90
28845;DHT22;15976;47.938;7.758;2022-07-22T01:36:36;22.00;53.00
28845;DHT22;15976;47.938;7.758;2022-07-22T01:39:03;22.00;52.90
28845;DHT22;15976;47.938;7.758;2022-07-22T01:41:31;22.00;53.10
28845;DHT22;15976;47.938;7.758;2022-07-22T01:43:58;22.00;53.20
28845;DHT22;15976;47.938;7.758;2022-07-22T01:46:25;22.00;53.20
28845;DHT22;15976;47.938;7.758;2022-07-22T01:48:53;22.00;53.20
28845;DHT22;15976;47.938;7.758;2022-07-22T01:51:20;21.90;53.30
28845;DHT22;15976;47.938;7.758;2022-07-22T01:53:48;21.90;53.50
28845;DHT22;15976;47.938;7.758;2022-07-22T01:56:17;21.80;53.50
28845;DHT22;15976;47.938;7.758;2022-07-22T01:58:48;21.80;53.60
28845;DHT22;15976;47.938;7.758;2022-07-22T02:01:20;21.80;53.60
28845;DHT22;15976;47.938;7.758;2022-07-22T02:03:48;21.80;53.70
28845;DHT22;15976;47.938;7.758;2022-07-22T02:06:15;21.70;53.70
28845;DHT22;15976;47.938;7.758;2022-07-22T02:08:42;21.70;53.80
28845;DHT22;15976;47.938;7.758;2022-07-22T02:11:26;21.70;53.90
28845;DHT22;15976;47.938;7.758;2022-07-22T02:13:55;21.60;54.00
28845;DHT22;15976;47.938;7.758;2022-07-22T02:16:24;21.60;54.00
28845;DHT22;15976;47.938;7.758;2022-07-22T02:18:52;21.60;54.00
28845;DHT22;15976;47.938;7.758;2022-07-22T02:21:20;21.60;54.10
28845;DHT22;15976;47.938;7.758;2022-07-22T02:23:51;21.60;54.20
28845;DHT22;15976;47.938;7.758;2022-07-22T02:26:18;21.50;54.40
28845;DHT22;15976;47.938;7.758;2022-07-22T02:28:46;21.50;54.40
28845;DHT22;15976;47.938;7.758;2022-07-22T02:31:13;21.50;54.50
28845;DHT22;15976;47.938;7.758;2022-07-22T02:33:40;21.50;54.50
28845;DHT22;15976;47.938;7.758;2022-07-22T02:36:08;21.50;54.60
28845;DHT22;15976;47.938;7.758;2022-07-22T02:38:36;21.40;54.70
28845;DHT22;15976;47.938;7.758;2022-07-22T02:41:03;21.40;54.80
28845;DHT22;15976;47.938;7.758;2022-07-22T02:43:33;21.40;54.80
28845;DHT22;15976;47.938;7.758;2022-07-22T02:46:00;21.40;54.90
28845;DHT22;15976;47.938;7.758;2022-07-22T02:48:27;21.40;55.00
28845;DHT22;15976;47.938;7.758;2022-07-22T02:50:55;21.30;55.00
28845;DHT22;15976;47.938;7.758;2022-07-22T02:53:25;21.30;55.00
28845;DHT22;15976;47.938;7.758;2022-07-22T02:55:52;21.30;55.00
28845;DHT22;15976;47.938;7.758;2022-07-22T02:58:19;21.30;55.10
28845;DHT22;15976;47.938;7.758;2022-07-22T03:00:46;21.20;55.20
28845;DHT22;15976;47.938;7.758;2022-07-22T03:03:13;21.20;55.40
28845;DHT22;15976;47.938;7.758;2022-07-22T03:05:41;21.20;55.50
28845;DHT22;15976;47.938;7.758;2022-07-22T03:08:31;21.20;55.50
28845;DHT22;15976;47.938;7.758;2022-07-22T03:10:58;21.10;55.60
28845;DHT22;15976;47.938;7.758;2022-07-22T03:13:25;21.10;55.60
28845;DHT22;15976;47.938;7.758;2022-07-22T03:15:53;21.10;55.70
28845;DHT22;15976;47.938;7.758;2022-07-22T03:18:21;21.10;55.80
28845;DHT22;15976;47.938;7.758;2022-07-22T03:20:48;21.10;55.90
28845;DHT22;15976;47.938;7.758;2022-07-22T03:23:15;21.10;56.00
28845;DHT22;15976;47.938;7.758;2022-07-22T03:25:42;21.10;56.10
28845;DHT22;15976;47.938;7.758;2022-07-22T03:28:10;21.10;56.20
28845;DHT22;15976;47.938;7.758;2022-07-22T03:30:37;21.00;56.20
28845;DHT22;15976;47.938;7.758;2022-07-22T03:33:04;21.00;56.20
28845;DHT22;15976;47.938;7.758;2022-07-22T03:35:36;21.00;56.20
28845;DHT22;15976;47.938;7.758;2022-07-22T03:38:04;21.00;56.20
28845;DHT22;15976;47.938;7.758;2022-07-22T03:40:31;21.00;56.40
28845;DHT22;15976;47.938;7.758;2022-07-22T03:42:59;20.90;56.40
28845;DHT22;15976;47.938;7.758;2022-07-22T03:45:26;20.90;56.40
28845;DHT22;15976;47.938;7.758;2022-07-22T03:47:53;20.90;56.50
28845;DHT22;15976;47.938;7.758;2022-07-22T03:50:24;20.90;56.50
28845;DHT22;15976;47.938;7.758;2022-07-22T03:52:51;20.90;56.60
28845;DHT22;15976;47.938;7.758;2022-07-22T03:57:50;20.90;56.70
28845;DHT22;15976;47.938;7.758;2022-07-22T04:00:23;20.90;56.70
28845;DHT22;15976;47.938;7.758;2022-07-22T04:02:50;20.80;56.80
28845;DHT22;15976;47.938;7.758;2022-07-22T04:05:26;20.80;56.90
28845;DHT22;15976;47.938;7.758;2022-07-22T04:07:53;20.80;57.10
28845;DHT22;15976;47.938;7.758;2022-07-22T04:10:20;20.80;57.10
28845;DHT22;15976;47.938;7.758;2022-07-22T04:12:47;20.80;57.10
28845;DHT22;15976;47.938;7.758;2022-07-22T04:15:21;20.80;57.10
28845;DHT22;15976;47.938;7.758;2022-07-22T04:17:51;20.80;57.20
28845;DHT22;15976;47.938;7.758;2022-07-22T04:20:19;20.80;57.20
28845;DHT22;15976;47.938;7.758;2022-07-22T04:23:21;20.80;57.40
28845;DHT22;15976;47.938;7.758;2022-07-22T04:25:56;20.80;57.20
28845;DHT22;15976;47.938;7.758;2022-07-22T04:28:23;20.70;57.30
28845;DHT22;15976;47.938;7.758;2022-07-22T04:30:50;20.70;57.40
28845;DHT22;15976;47.938;7.758;2022-07-22T04:33:18;20.70;57.50
28845;DHT22;15976;47.938;7.758;2022-07-22T04:35:45;20.70;57.60
28845;DHT22;15976;47.938;7.758;2022-07-22T04:38:17;20.70;57.50
28845;DHT22;15976;47.938;7.758;2022-07-22T04:41:03;20.70;57.50
28845;DHT22;15976;47.938;7.758;2022-07-22T04:43:30;20.80;57.60
28845;DHT22;15976;47.938;7.758;2022-07-22T04:45:58;20.70;57.60
28845;DHT22;15976;47.938;7.758;2022-07-22T04:48:30;20.70;57.80
28845;DHT22;15976;47.938;7.758;2022-07-22T04:51:01;20.70;58.40
28845;DHT22;15976;47.938;7.758;2022-07-22T04:53:30;20.70;58.10
28845;DHT22;15976;47.938;7.758;2022-07-22T04:56:17;20.70;58.00
28845;DHT22;15976;47.938;7.758;2022-07-22T04:58:45;20.70;58.00
28845;DHT22;15976;47.938;7.758;2022-07-22T05:01:12;20.70;58.10
28845;DHT22;15976;47.938;7.758;2022-07-22T05:03:42;20.70;58.10
28845;DHT22;15976;47.938;7.758;2022-07-22T05:06:11;20.70;58.10
28845;DHT22;15976;47.938;7.758;2022-07-22T05:08:41;20.70;58.10
28845;DHT22;15976;47.938;7.758;2022-07-22T05:11:08;20.70;58.20
28845;DHT22;15976;47.938;7.758;2022-07-22T05:13:35;20.70;58.30
28845;DHT22;15976;47.938;7.758;2022-07-22T05:16:06;20.60;58.30
28845;DHT22;15976;47.938;7.758;2022-07-22T05:18:35;20.70;58.50
28845;DHT22;15976;47.938;7.758;2022-07-22T05:21:03;20.70;58.50
28845;DHT22;15976;47.938;7.758;2022-07-22T05:23:31;20.70;58.70
28845;DHT22;15976;47.938;7.758;2022-07-22T05:26:00;20.70;58.70
28845;DHT22;15976;47.938;7.758;2022-07-22T05:28:27;20.80;58.80
28845;DHT22;15976;47.938;7.758;2022-07-22T05:30:54;20.80;58.80
28845;DHT22;15976;47.938;7.758;2022-07-22T05:33:24;20.80;58.90
28845;DHT22;15976;47.938;7.758;2022-07-22T05:36:01;20.80;58.90
28845;DHT22;15976;47.938;7.758;2022-07-22T05:38:35;20.90;58.90
28845;DHT22;15976;47.938;7.758;2022-07-22T05:41:03;20.90;59.10
28845;DHT22;15976;47.938;7.758;2022-07-22T05:43:32;21.00;59.30
28845;DHT22;15976;47.938;7.758;2022-07-22T05:46:04;21.10;59.40
28845;DHT22;15976;47.938;7.758;2022-07-22T05:48:33;21.10;59.50
28845;DHT22;15976;47.938;7.758;2022-07-22T05:51:01;21.20;59.70
28845;DHT22;15976;47.938;7.758;2022-07-22T05:53:31;21.20;59.80
28845;DHT22;15976;47.938;7.758;2022-07-22T05:56:00;21.30;59.90
28845;DHT22;15976;47.938;7.758;2022-07-22T05:58:34;21.30;60.00
28845;DHT22;15976;47.938;7.758;2022-07-22T06:01:02;21.40;60.10
28845;DHT22;15976;47.938;7.758;2022-07-22T06:03:34;21.50;60.20
28845;DHT22;15976;47.938;7.758;2022-07-22T06:06:02;21.50;59.60
28845;DHT22;15976;47.938;7.758;2022-07-22T06:08:31;21.60;59.90
28845;DHT22;15976;47.938;7.758;2022-07-22T06:10:59;21.60;60.10
28845;DHT22;15976;47.938;7.758;2022-07-22T06:13:26;21.70;60.10
28845;DHT22;15976;47.938;7.758;2022-07-22T06:15:55;21.70;60.20
28845;DHT22;15976;47.938;7.758;2022-07-22T06:18:22;21.80;60.30
28845;DHT22;15976;47.938;7.758;2022-07-22T06:20:50;21.90;60.30
28845;DHT22;15976;47.938;7.758;2022-07-22T06:23:17;21.90;60.30
28845;DHT22;15976;47.938;7.758;2022-07-22T06:25:44;22.00;60.40
28845;DHT22;15976;47.938;7.758;2022-07-22T06:28:33;22.10;60.50
28845;DHT22;15976;47.938;7.758;2022-07-22T06:31:05;22.20;60.30
28845;DHT22;15976;47.938;7.758;2022-07-22T06:33:45;22.30;60.40
28845;DHT22;15976;47.938;7.758;2022-07-22T06:36:16;22.40;60.30
28845;DHT22;15976;47.938;7.758;2022-07-22T06:38:45;22.50;60.30
28845;DHT22;15976;47.938;7.758;2022-07-22T06:41:16;22.60;60.20
28845;DHT22;15976;47.938;7.758;2022-07-22T06:44:07;22.70;60.10
28845;DHT22;15976;47.938;7.758;2022-07-22T06:46:54;22.80;60.10
28845;DHT22;15976;47.938;7.758;2022-07-22T06:49:23;22.90;60.10
28845;DHT22;15976;47.938;7.758;2022-07-22T06:51:51;23.10;60.00
28845;DHT22;15976;47.938;7.758;2022-07-22T06:54:19;23.20;59.90
28845;DHT22;15976;47.938;7.758;2022-07-22T06:56:48;23.30;59.90
28845;DHT22;15976;47.938;7.758;2022-07-22T06:59:20;23.40;59.80
28845;DHT22;15976;47.938;7.758;2022-07-22T07:01:47;23.50;59.60
28845;DHT22;15976;47.938;7.758;2022-07-22T07:04:17;23.60;59.40
28845;DHT22;15976;47.938;7.758;2022-07-22T07:06:47;23.80;59.80
28845;DHT22;15976;47.938;7.758;2022-07-22T07:09:43;23.90;59.10
28845;DHT22;15976;47.938;7.758;2022-07-22T07:12:27;24.00;59.00
28845;DHT22;15976;47.938;7.758;2022-07-22T07:15:24;24.20;58.90
28845;DHT22;15976;47.938;7.758;2022-07-22T07:18:09;24.30;58.60
28845;DHT22;15976;47.938;7.758;2022-07-22T07:20:37;24.50;58.50
28845;DHT22;15976;47.938;7.758;2022-07-22T07:23:09;24.70;58.30
28845;DHT22;15976;47.938;7.758;2022-07-22T07:25:44;24.90;58.00
28845;DHT22;15976;47.938;7.758;2022-07-22T07:28:18;25.10;57.90
28845;DHT22;15976;47.938;7.758;2022-07-22T07:30:58;25.30;57.80
28845;DHT22;15976;47.938;7.758;2022-07-22T07:33:28;25.60;57.50
28845;DHT22;15976;47.938;7.758;2022-07-22T07:35:56;26.00;57.10
28845;DHT22;15976;47.938;7.758;2022-07-22T07:38:35;26.20;56.40
28845;DHT22;15976;47.938;7.758;2022-07-22T07:41:07;26.60;55.80
28845;DHT22;15976;47.938;7.758;2022-07-22T07:43:39;26.90;55.30
28845;DHT22;15976;47.938;7.758;2022-07-22T07:46:07;27.30;54.70
28845;DHT22;15976;47.938;7.758;2022-07-22T07:48:42;27.60;54.20
28845;DHT22;15976;47.938;7.758;2022-07-22T07:51:10;28.00;53.50
28845;DHT22;15976;47.938;7.758;2022-07-22T07:53:40;28.30;52.60
28845;DHT22;15976;47.938;7.758;2022-07-22T07:56:09;28.50;51.40
28845;DHT22;15976;47.938;7.758;2022-07-22T07:58:36;28.80;51.10
28845;DHT22;15976;47.938;7.758;2022-07-22T08:01:06;29.20;50.30
28845;DHT22;15976;47.938;7.758;2022-07-22T08:03:35;29.40;49.50
28845;DHT22;15976;47.938;7.758;2022-07-22T08:06:04;29.70;48.70
28845;DHT22;15976;47.938;7.758;2022-07-22T08:08:32;30.00;48.10
28845;DHT22;15976;47.938;7.758;2022-07-22T08:11:05;30.30;47.60
28845;DHT22;15976;47.938;7.758;2022-07-22T08:13:52;30.70;46.90
28845;DHT22;15976;47.938;7.758;2022-07-22T08:16:21;31.10;46.30
28845;DHT22;15976;47.938;7.758;2022-07-22T08:18:49;31.50;45.90
28845;DHT22;15976;47.938;7.758;2022-07-22T08:21:24;32.00;45.30
28845;DHT22;15976;47.938;7.758;2022-07-22T08:24:20;32.50;44.30
28845;DHT22;15976;47.938;7.758;2022-07-22T08:27:40;32.80;44.20
28845;DHT22;15976;47.938;7.758;2022-07-22T08:30:51;33.40;43.20
28845;DHT22;15976;47.938;7.758;2022-07-22T08:33:47;33.80;42.40
28845;DHT22;15976;47.938;7.758;2022-07-22T08:36:51;34.00;42.30
28845;DHT22;15976;47.938;7.758;2022-07-22T08:39:18;34.40;42.40
28845;DHT22;15976;47.938;7.758;2022-07-22T08:41:50;34.80;42.00
28845;DHT22;15976;47.938;7.758;2022-07-22T08:44:18;35.10;41.10
28845;DHT22;15976;47.938;7.758;2022-07-22T08:46:46;35.30;41.30
28845;DHT22;15976;47.938;7.758;2022-07-22T08:49:16;35.50;41.20
28845;DHT22;15976;47.938;7.758;2022-07-22T08:52:05;35.90;41.10
28845;DHT22;15976;47.938;7.758;2022-07-22T08:54:42;36.30;41.10
28845;DHT22;15976;47.938;7.758;2022-07-22T08:57:10;36.70;41.20
28845;DHT22;15976;47.938;7.758;2022-07-22T08:59:57;37.10;41.00
28845;DHT22;15976;47.938;7.758;2022-07-22T09:02:25;37.30;40.50
28845;DHT22;15976;47.938;7.758;2022-07-22T09:05:00;37.60;40.80
28845;DHT22;15976;47.938;7.758;2022-07-22T09:07:48;37.90;40.20
28845;DHT22;15976;47.938;7.758;2022-07-22T09:10:38;38.10;40.20
28845;DHT22;15976;47.938;7.758;2022-07-22T09:13:24;38.40;40.50
28845;DHT22;15976;47.938;7.758;2022-07-22T09:16:05;38.70;40.80
28845;DHT22;15976;47.938;7.758;2022-07-22T09:18:51;38.90;40.70
28845;DHT22;15976;47.938;7.758;2022-07-22T09:21:42;39.10;40.70
28845;DHT22;15976;47.938;7.758;2022-07-22T09:24:40;39.40;40.40
28845;DHT22;15976;47.938;7.758;2022-07-22T09:27:29;39.70;40.60
28845;DHT22;15976;47.938;7.758;2022-07-22T09:30:29;40.00;40.70
28845;DHT22;15976;47.938;7.758;2022-07-22T09:33:05;40.30;40.30
28845;DHT22;15976;47.938;7.758;2022-07-22T09:36:01;40.50;40.70
28845;DHT22;15976;47.938;7.758;2022-07-22T09:38:29;40.70;39.40
28845;DHT22;15976;47.938;7.758;2022-07-22T09:40:58;40.90;39.90
28845;DHT22;15976;47.938;7.758;2022-07-22T09:43:26;40.90;38.10
28845;DHT22;15976;47.938;7.758;2022-07-22T09:46:00;41.00;39.90
28845;DHT22;15976;47.938;7.758;2022-07-22T09:48:45;41.50;39.50
28845;DHT22;15976;47.938;7.758;2022-07-22T09:51:31;41.80;38.90
28845;DHT22;15976;47.938;7.758;2022-07-22T09:54:30;41.90;38.50
28845;DHT22;15976;47.938;7.758;2022-07-22T09:56:57;42.10;38.50
28845;DHT22;15976;47.938;7.758;2022-07-22T09:59:25;42.40;38.10
28845;DHT22;15976;47.938;7.758;2022-07-22T10:02:11;42.70;38.00
28845;DHT22;15976;47.938;7.758;2022-07-22T10:04:39;42.90;36.70
28845;DHT22;15976;47.938;7.758;2022-07-22T10:07:10;43.00;36.40
28845;DHT22;15976;47.938;7.758;2022-07-22T10:09:39;43.20;37.60
28845;DHT22;15976;47.938;7.758;2022-07-22T10:12:07;43.50;36.80
28845;DHT22;15976;47.938;7.758;2022-07-22T10:14:35;43.70;35.60
28845;DHT22;15976;47.938;7.758;2022-07-22T10:17:04;43.90;34.70
28845;DHT22;15976;47.938;7.758;2022-07-22T10:19:34;44.10;34.00
28845;DHT22;15976;47.938;7.758;2022-07-22T10:22:01;44.30;33.40
28845;DHT22;15976;47.938;7.758;2022-07-22T10:24:29;44.50;32.20
28845;DHT22;15976;47.938;7.758;2022-07-22T10:26:58;44.70;32.20
28845;DHT22;15976;47.938;7.758;2022-07-22T10:29:29;44.90;32.50
28845;DHT22;15976;47.938;7.758;2022-07-22T10:40:20;46.00;29.40
28845;DHT22;15976;47.938;7.758;2022-07-22T10:45:38;46.60;28.60
28845;DHT22;15976;47.938;7.758;2022-07-22T10:50:49;46.90;28.10
28845;DHT22;15976;47.938;7.758;2022-07-22T10:53:21;47.10;28.00
28845;DHT22;15976;47.938;7.758;2022-07-22T11:01:04;47.60;27.00
28845;DHT22;15976;47.938;7.758;2022-07-22T11:03:32;47.70;26.90
28845;DHT22;15976;47.938;7.758;2022-07-22T11:08:44;47.90;25.70
28845;DHT22;15976;47.938;7.758;2022-07-22T11:11:11;48.00;25.20
28845;DHT22;15976;47.938;7.758;2022-07-22T11:13:41;48.30;25.30
28845;DHT22;15976;47.938;7.758;2022-07-22T11:16:23;48.50;25.00
28845;DHT22;15976;47.938;7.758;2022-07-22T11:18:58;48.70;24.60
28845;DHT22;15976;47.938;7.758;2022-07-22T11:21:27;48.90;24.40
28845;DHT22;15976;47.938;7.758;2022-07-22T11:23:58;49.10;24.10
28845;DHT22;15976;47.938;7.758;2022-07-22T11:26:48;49.30;24.00
28845;DHT22;15976;47.938;7.758;2022-07-22T11:29:34;49.60;24.90
28845;DHT22;15976;47.938;7.758;2022-07-22T11:32:04;49.80;23.70
28845;DHT22;15976;47.938;7.758;2022-07-22T11:34:32;49.70;22.80
28845;DHT22;15976;47.938;7.758;2022-07-22T11:36:59;49.70;22.90
28845;DHT22;15976;47.938;7.758;2022-07-22T11:39:28;49.80;22.50
28845;DHT22;15976;47.938;7.758;2022-07-22T11:41:58;49.90;21.90
28845;DHT22;15976;47.938;7.758;2022-07-22T11:44:28;49.80;22.00
28845;DHT22;15976;47.938;7.758;2022-07-22T11:46:56;50.00;22.40
28845;DHT22;15976;47.938;7.758;2022-07-22T11:49:27;50.20;22.30
28845;DHT22;15976;47.938;7.758;2022-07-22T11:51:55;50.50;22.10
28845;DHT22;15976;47.938;7.758;2022-07-22T11:54:22;50.70;21.90
28845;DHT22;15976;47.938;7.758;2022-07-22T11:56:49;50.90;21.30
28845;DHT22;15976;47.938;7.758;2022-07-22T11:59:23;50.90;20.90
28845;DHT22;15976;47.938;7.758;2022-07-22T12:01:50;51.10;20.90
28845;DHT22;15976;47.938;7.758;2022-07-22T12:04:23;51.20;20.90
28845;DHT22;15976;47.938;7.758;2022-07-22T12:06:52;51.30;20.60
28845;DHT22;15976;47.938;7.758;2022-07-22T12:09:23;51.30;20.60
28845;DHT22;15976;47.938;7.758;2022-07-22T12:11:53;51.20;20.40
28845;DHT22;15976;47.938;7.758;2022-07-22T12:14:23;51.30;20.40
28845;DHT22;15976;47.938;7.758;2022-07-22T12:19:21;51.60;20.10
28845;DHT22;15976;47.938;7.758;2022-07-22T12:21:54;51.70;20.00
28845;DHT22;15976;47.938;7.758;2022-07-22T12:24:32;51.80;20.00
28845;DHT22;15976;47.938;7.758;2022-07-22T12:32:06;52.10;19.80
28845;DHT22;15976;47.938;7.758;2022-07-22T12:34:43;52.20;20.10
28845;DHT22;15976;47.938;7.758;2022-07-22T12:37:19;52.30;20.30
28845;DHT22;15976;47.938;7.758;2022-07-22T12:42:21;52.30;19.50
28845;DHT22;15976;47.938;7.758;2022-07-22T12:47:52;52.30;18.90
28845;DHT22;15976;47.938;7.758;2022-07-22T12:50:25;52.30;18.90
28845;DHT22;15976;47.938;7.758;2022-07-22T12:53:02;52.40;18.70
28845;DHT22;15976;47.938;7.758;2022-07-22T12:55:52;52.40;18.50
28845;DHT22;15976;47.938;7.758;2022-07-22T12:58:26;52.50;18.80
28845;DHT22;15976;47.938;7.758;2022-07-22T13:01:00;52.40;18.60
28845;DHT22;15976;47.938;7.758;2022-07-22T13:03:28;52.50;18.80
28845;DHT22;15976;47.938;7.758;2022-07-22T13:06:01;52.50;18.70
28845;DHT22;15976;47.938;7.758;2022-07-22T13:08:33;52.60;18.80
28845;DHT22;15976;47.938;7.758;2022-07-22T13:11:12;52.70;18.70
28845;DHT22;15976;47.938;7.758;2022-07-22T13:13:39;52.70;18.60
28845;DHT22;15976;47.938;7.758;2022-07-22T13:16:06;52.70;18.90
28845;DHT22;15976;47.938;7.758;2022-07-22T13:18:34;52.70;18.40
28845;DHT22;15976;47.938;7.758;2022-07-22T13:21:01;52.60;18.60
28845;DHT22;15976;47.938;7.758;2022-07-22T13:23:28;52.50;18.50
28845;DHT22;15976;47.938;7.758;2022-07-22T13:25:55;52.50;18.40
28845;DHT22;15976;47.938;7.758;2022-07-22T13:28:23;52.70;18.40
28845;DHT22;15976;47.938;7.758;2022-07-22T13:30:50;52.60;18.30
28845;DHT22;15976;47.938;7.758;2022-07-22T13:33:17;52.60;18.10
28845;DHT22;15976;47.938;7.758;2022-07-22T13:35:44;52.40;17.80
28845;DHT22;15976;47.938;7.758;2022-07-22T13:38:11;52.10;17.60
28845;DHT22;15976;47.938;7.758;2022-07-22T13:40:45;52.00;17.90
28845;DHT22;15976;47.938;7.758;2022-07-22T13:43:22;52.00;18.50
28845;DHT22;15976;47.938;7.758;2022-07-22T13:45:50;52.20;18.40
28845;DHT22;15976;47.938;7.758;2022-07-22T13:48:17;52.20;18.60
28845;DHT22;15976;47.938;7.758;2022-07-22T13:50:47;52.30;18.30
28845;DHT22;15976;47.938;7.758;2022-07-22T13:53:14;52.30;18.60
28845;DHT22;15976;47.938;7.758;2022-07-22T13:55:41;52.50;18.80
28845;DHT22;15976;47.938;7.758;2022-07-22T13:58:08;52.70;18.90
28845;DHT22;15976;47.938;7.758;2022-07-22T14:00:35;53.00;18.70
28845;DHT22;15976;47.938;7.758;2022-07-22T14:03:05;53.00;18.50
28845;DHT22;15976;47.938;7.758;2022-07-22T14:05:32;53.00;18.30
28845;DHT22;15976;47.938;7.758;2022-07-22T14:07:59;52.90;17.90
28845;DHT22;15976;47.938;7.758;2022-07-22T14:10:26;52.70;18.00
28845;DHT22;15976;47.938;7.758;2022-07-22T14:12:57;52.70;18.20
28845;DHT22;15976;47.938;7.758;2022-07-22T14:15:24;52.70;18.20
28845;DHT22;15976;47.938;7.758;2022-07-22T14:17:51;52.70;18.10
28845;DHT22;15976;47.938;7.758;2022-07-22T14:20:18;52.70;17.70
28845;DHT22;15976;47.938;7.758;2022-07-22T14:22:45;52.70;17.70
28845;DHT22;15976;47.938;7.758;2022-07-22T14:25:12;52.70;17.90
28845;DHT22;15976;47.938;7.758;2022-07-22T14:27:40;52.70;17.60
28845;DHT22;15976;47.938;7.758;2022-07-22T14:30:07;52.60;17.30
28845;DHT22;15976;47.938;7.758;2022-07-22T14:32:34;52.40;17.10
28845;DHT22;15976;47.938;7.758;2022-07-22T14:35:01;52.20;16.80
28845;DHT22;15976;47.938;7.758;2022-07-22T14:37:28;52.10;16.50
28845;DHT22;15976;47.938;7.758;2022-07-22T14:39:56;52.00;15.80
28845;DHT22;15976;47.938;7.758;2022-07-22T14:42:22;51.60;15.40
28845;DHT22;15976;47.938;7.758;2022-07-22T14:44:50;51.30;15.70
28845;DHT22;15976;47.938;7.758;2022-07-22T14:47:17;51.20;15.80
28845;DHT22;15976;47.938;7.758;2022-07-22T14:49:44;51.20;15.50
28845;DHT22;15976;47.938;7.758;2022-07-22T14:52:11;51.10;15.20
28845;DHT22;15976;47.938;7.758;2022-07-22T14:54:38;51.00;15.10
28845;DHT22;15976;47.938;7.758;2022-07-22T14:57:05;50.80;14.70
28845;DHT22;15976;47.938;7.758;2022-07-22T14:59:32;50.40;14.90
28845;DHT22;15976;47.938;7.758;2022-07-22T15:01:59;50.30;14.60
28845;DHT22;15976;47.938;7.758;2022-07-22T15:04:26;49.90;14.60
28845;DHT22;15976;47.938;7.758;2022-07-22T15:06:53;49.80;14.60
28845;DHT22;15976;47.938;7.758;2022-07-22T15:09:21;49.70;14.70
28845;DHT22;15976;47.938;7.758;2022-07-22T15:11:48;49.60;14.90
28845;DHT22;15976;47.938;7.758;2022-07-22T15:14:16;49.50;14.80
28845;DHT22;15976;47.938;7.758;2022-07-22T15:16:43;49.40;14.80
28845;DHT22;15976;47.938;7.758;2022-07-22T15:19:10;49.20;15.20
28845;DHT22;15976;47.938;7.758;2022-07-22T15:21:39;49.10;14.90
28845;DHT22;15976;47.938;7.758;2022-07-22T15:24:06;49.00;14.90
28845;DHT22;15976;47.938;7.758;2022-07-22T15:26:33;48.80;14.90
28845;DHT22;15976;47.938;7.758;2022-07-22T15:29:00;48.60;14.40
28845;DHT22;15976;47.938;7.758;2022-07-22T15:31:27;48.20;14.00
28845;DHT22;15976;47.938;7.758;2022-07-22T15:33:55;47.60;13.60
28845;DHT22;15976;47.938;7.758;2022-07-22T15:36:22;47.00;13.70
28845;DHT22;15976;47.938;7.758;2022-07-22T15:38:49;46.20;13.80
28845;DHT22;15976;47.938;7.758;2022-07-22T15:41:22;45.50;13.90
28845;DHT22;15976;47.938;7.758;2022-07-22T15:43:49;44.90;14.20
28845;DHT22;15976;47.938;7.758;2022-07-22T15:46:16;44.30;14.60
28845;DHT22;15976;47.938;7.758;2022-07-22T15:48:43;43.80;14.90
28845;DHT22;15976;47.938;7.758;2022-07-22T15:51:11;43.30;15.10
28845;DHT22;15976;47.938;7.758;2022-07-22T15:53:38;42.80;15.40
28845;DHT22;15976;47.938;7.758;2022-07-22T15:56:05;42.40;15.70
28845;DHT22;15976;47.938;7.758;2022-07-22T15:58:32;42.00;16.10
28845;DHT22;15976;47.938;7.758;2022-07-22T16:01:38;41.70;16.10
28845;DHT22;15976;47.938;7.758;2022-07-22T16:04:05;41.30;16.30
28845;DHT22;15976;47.938;7.758;2022-07-22T16:06:32;41.20;16.70
28845;DHT22;15976;47.938;7.758;2022-07-22T16:09:02;41.00;16.80
28845;DHT22;15976;47.938;7.758;2022-07-22T16:11:32;40.80;17.10
28845;DHT22;15976;47.938;7.758;2022-07-22T16:13:59;40.60;17.30
28845;DHT22;15976;47.938;7.758;2022-07-22T16:16:26;40.30;17.60
28845;DHT22;15976;47.938;7.758;2022-07-22T16:18:53;40.10;17.80
28845;DHT22;15976;47.938;7.758;2022-07-22T16:21:21;39.90;18.10
28845;DHT22;15976;47.938;7.758;2022-07-22T16:23:53;39.60;18.30
28845;DHT22;15976;47.938;7.758;2022-07-22T16:26:21;39.30;18.50
28845;DHT22;15976;47.938;7.758;2022-07-22T16:28:49;39.10;18.80
28845;DHT22;15976;47.938;7.758;2022-07-22T16:31:16;39.00;19.00